createdAt,value
2022-10-18T00:01:50.772Z,17.88
2022-10-18T00:05:13.802Z,17.75
2022-10-18T00:08:45.546Z,17.80
2022-10-18T00:11:55.397Z,17.40
2022-10-18T00:14:58.528Z,17.10
2022-10-18T00:18:09.255Z,16.92
2022-10-18T00:21:26.977Z,16.55
2022-10-18T00:24:33.289Z,17.53
2022-10-18T00:27:36.332Z,16.73
2022-10-18T00:30:41.223Z,16.83
2022-10-18T00:34:03.999Z,18.08
2022-10-18T00:37:18.540Z,17.27
2022-10-18T00:40:40.721Z,17.70
2022-10-18T00:44:10.623Z,16.77
2022-10-18T00:47:33.746Z,17.58
2022-10-18T00:50:55.775Z,17.08
2022-10-18T00:54:11.772Z,17.85
2022-10-18T00:57:33.661Z,17.00
2022-10-18T01:01:03.768Z,17.40
2022-10-18T01:04:27.630Z,16.98
2022-10-18T01:07:50.765Z,17.17
2022-10-18T01:11:36.858Z,16.27
2022-10-18T01:15:18.494Z,17.20
2022-10-18T01:18:41.059Z,17.93
2022-10-18T01:22:14.230Z,16.88
2022-10-18T01:25:49.538Z,16.83
2022-10-18T01:29:30.446Z,16.95
2022-10-18T01:33:00.608Z,16.17
2022-10-18T01:36:29.977Z,16.67
2022-10-18T01:39:46.755Z,16.63
2022-10-18T01:43:02.890Z,16.65
2022-10-18T01:46:25.675Z,17.60
2022-10-18T01:49:45.634Z,16.47
2022-10-18T01:53:08.634Z,16.60
2022-10-18T01:56:32.626Z,16.73
2022-10-18T02:00:10.561Z,17.20
2022-10-18T02:03:22.690Z,17.00
2022-10-18T02:06:38.509Z,16.70
2022-10-18T02:09:59.885Z,15.53
2022-10-18T02:13:16.683Z,17.05
2022-10-18T02:16:24.747Z,15.95
2022-10-18T02:19:43.388Z,16.98
2022-10-18T02:22:56.454Z,16.40
2022-10-18T02:26:18.287Z,16.93
2022-10-18T02:29:37.358Z,16.25
2022-10-18T02:33:01.426Z,16.23
2022-10-18T02:36:35.497Z,15.98
2022-10-18T02:39:55.496Z,16.20
2022-10-18T02:43:10.420Z,16.50
2022-10-18T02:46:21.232Z,16.73
2022-10-18T02:49:44.513Z,15.32
2022-10-18T02:53:14.427Z,16.27
2022-10-18T02:56:37.436Z,14.93
2022-10-18T02:59:59.421Z,15.33
2022-10-18T03:03:22.418Z,15.65
2022-10-18T03:06:45.270Z,15.23
2022-10-18T03:10:04.698Z,15.13
2022-10-18T03:13:21.077Z,14.60
2022-10-18T03:16:38.478Z,14.97
2022-10-18T03:20:01.484Z,15.00
2022-10-18T03:23:31.296Z,14.52
2022-10-18T03:26:55.306Z,15.15
2022-10-18T03:30:17.320Z,14.77
2022-10-18T03:33:39.430Z,15.13
2022-10-18T03:37:04.779Z,15.05
2022-10-18T03:40:24.427Z,15.07
2022-10-18T03:43:40.520Z,14.63
2022-10-18T03:47:00.292Z,14.13
2022-10-18T03:50:28.418Z,14.67
2022-10-18T03:53:51.297Z,14.60
2022-10-18T03:57:06.372Z,14.70
2022-10-18T04:00:29.283Z,14.60
2022-10-18T04:03:49.364Z,14.90
2022-10-18T04:07:09.463Z,14.70
2022-10-18T04:10:30.323Z,15.38
2022-10-18T04:13:49.186Z,14.27
2022-10-18T04:16:56.449Z,15.65
2022-10-18T04:20:05.947Z,15.93
2022-10-18T04:23:27.900Z,15.40
2022-10-18T04:26:47.914Z,14.65
2022-10-18T04:30:10.190Z,13.95
2022-10-18T04:33:29.323Z,13.40
2022-10-18T04:36:40.223Z,13.97
2022-10-18T04:40:03.201Z,15.13
2022-10-18T04:43:30.276Z,15.18
2022-10-18T04:46:52.117Z,15.98
2022-10-18T04:50:15.247Z,16.25
2022-10-18T04:53:36.104Z,15.83
2022-10-18T04:57:06.152Z,15.97
2022-10-18T05:00:29.068Z,17.17
2022-10-18T05:03:50.932Z,16.45
2022-10-18T05:07:14.100Z,16.70
2022-10-18T05:10:36.226Z,16.50
2022-10-18T05:13:56.082Z,16.53
2022-10-18T05:16:59.701Z,16.63
2022-10-18T05:20:02.669Z,17.58
2022-10-18T05:23:12.780Z,16.63
2022-10-18T05:26:35.157Z,17.07
2022-10-18T05:30:01.260Z,17.53
2022-10-18T05:33:32.428Z,16.90
2022-10-18T05:36:51.333Z,19.30
2022-10-18T05:40:14.034Z,19.25
2022-10-18T05:43:28.711Z,16.50
2022-10-18T05:46:45.746Z,16.77
2022-10-18T05:50:17.259Z,17.13
2022-10-18T05:53:38.011Z,17.42
2022-10-18T05:56:54.260Z,16.40
2022-10-18T06:00:15.085Z,18.07
2022-10-18T06:08:49.071Z,17.92
2022-10-18T06:12:17.356Z,17.33
2022-10-18T06:15:33.594Z,17.05
2022-10-18T06:19:02.570Z,16.40
2022-10-18T06:22:09.447Z,15.70
2022-10-18T06:25:34.482Z,16.67
2022-10-18T06:28:41.626Z,17.20
2022-10-18T06:31:55.286Z,16.13
2022-10-18T06:34:58.288Z,16.40
2022-10-18T06:38:58.048Z,15.60
2022-10-18T06:42:22.621Z,16.40
2022-10-18T06:45:50.906Z,16.00
2022-10-18T06:49:22.167Z,16.85
2022-10-18T06:53:16.542Z,17.30
2022-10-18T06:57:07.343Z,35.90
2022-10-18T07:00:19.376Z,17.33
2022-10-18T07:03:25.040Z,16.20
2022-10-18T07:06:54.264Z,17.40
2022-10-18T07:10:01.278Z,17.10
2022-10-18T07:13:32.052Z,17.37
2022-10-18T07:17:01.900Z,17.08
2022-10-18T07:20:13.025Z,18.50
2022-10-18T07:23:29.059Z,18.92
2022-10-18T07:27:13.320Z,19.40
2022-10-18T07:30:41.606Z,17.87
2022-10-18T07:35:13.191Z,17.83
2022-10-18T07:38:53.435Z,17.17
2022-10-18T07:42:28.622Z,19.08
2022-10-18T07:51:10.246Z,17.10
2022-10-18T07:55:09.608Z,17.35
2022-10-18T08:03:27.910Z,19.05
2022-10-18T08:06:41.101Z,18.37
2022-10-18T08:10:20.674Z,19.13
2022-10-18T08:13:47.045Z,20.80
2022-10-18T08:17:07.020Z,19.27
2022-10-18T08:21:34.703Z,17.80
2022-10-18T08:30:59.078Z,15.50
2022-10-18T08:34:25.101Z,16.20
2022-10-18T08:37:44.058Z,16.50
2022-10-18T08:41:38.354Z,24.42
2022-10-18T08:46:04.139Z,19.13
2022-10-18T08:49:51.043Z,16.10
2022-10-18T08:59:24.738Z,14.90
2022-10-18T09:03:00.303Z,14.68
2022-10-18T09:16:04.955Z,14.20
2022-10-18T09:19:36.174Z,11.55
2022-10-18T09:22:51.440Z,9.48
2022-10-18T09:32:40.091Z,10.17
2022-10-18T09:36:26.027Z,8.77
2022-10-18T09:39:57.775Z,9.05
2022-10-18T09:48:26.368Z,10.50
2022-10-18T09:51:58.819Z,8.50
2022-10-18T09:55:27.421Z,9.30
2022-10-18T09:58:51.528Z,8.40
2022-10-18T10:02:52.394Z,8.23
2022-10-18T10:06:18.949Z,8.30
2022-10-18T10:10:16.766Z,10.30
2022-10-18T10:13:42.132Z,9.65
2022-10-18T10:16:51.739Z,9.93
2022-10-18T10:20:05.722Z,9.30
2022-10-18T10:23:39.315Z,9.30
2022-10-18T10:27:25.087Z,8.80
2022-10-18T10:30:45.162Z,9.02
2022-10-18T10:34:44.622Z,7.95
2022-10-18T10:37:58.471Z,7.90
2022-10-18T10:41:24.517Z,7.97
2022-10-18T10:44:40.086Z,6.37
2022-10-18T10:49:21.692Z,6.50
2022-10-18T10:52:57.464Z,5.90
2022-10-18T10:56:50.680Z,6.18
2022-10-18T11:00:57.470Z,6.60
2022-10-18T11:04:35.385Z,10.90
2022-10-18T11:08:23.942Z,55.72
2022-10-18T11:12:02.105Z,18.92
2022-10-18T11:20:25.896Z,5.43
2022-10-18T11:23:44.890Z,6.07
2022-10-18T11:27:09.908Z,6.78
2022-10-18T11:34:55.834Z,5.63
2022-10-18T11:38:53.858Z,6.93
2022-10-18T11:42:17.929Z,6.80
2022-10-18T11:46:35.475Z,6.15
2022-10-18T11:49:53.482Z,6.05
2022-10-18T11:53:37.722Z,6.18
2022-10-18T11:57:26.143Z,6.43
2022-10-18T12:00:55.158Z,6.60
2022-10-18T12:05:05.320Z,6.35
2022-10-18T12:08:45.456Z,6.55
2022-10-18T12:12:47.578Z,7.40
2022-10-18T12:16:50.515Z,7.57
2022-10-18T12:21:15.111Z,6.20
2022-10-18T12:24:35.475Z,6.10
2022-10-18T12:32:34.904Z,6.82
2022-10-18T12:36:07.220Z,6.90
2022-10-18T12:39:37.521Z,6.63
2022-10-18T12:43:00.313Z,6.13
2022-10-18T12:46:30.097Z,6.10
2022-10-18T12:49:52.886Z,6.53
2022-10-18T12:58:13.686Z,6.13
2022-10-18T13:01:35.874Z,5.47
2022-10-18T13:04:40.833Z,6.47
2022-10-18T13:07:46.701Z,6.40
2022-10-18T13:11:12.888Z,6.10
2022-10-18T13:14:25.991Z,6.17
2022-10-18T13:17:48.469Z,5.82
2022-10-18T13:21:17.827Z,6.10
2022-10-18T13:24:26.333Z,6.00
2022-10-18T13:27:49.103Z,5.57
2022-10-18T13:31:05.250Z,4.70
2022-10-18T13:34:31.372Z,4.43
2022-10-18T13:37:37.797Z,4.60
2022-10-18T13:40:43.132Z,4.97
2022-10-18T13:43:55.966Z,4.43
2022-10-18T13:47:05.818Z,4.50
2022-10-18T13:50:33.073Z,4.30
2022-10-18T13:53:59.754Z,5.80
2022-10-18T13:57:26.280Z,7.20
2022-10-18T14:01:06.909Z,5.43
2022-10-18T14:04:28.369Z,4.20
2022-10-18T14:08:12.694Z,4.53
2022-10-18T14:11:38.153Z,4.15
2022-10-18T14:14:58.580Z,4.35
2022-10-18T14:18:44.929Z,4.17
2022-10-18T14:22:30.530Z,4.27
2022-10-18T14:25:45.068Z,4.40
2022-10-18T14:29:20.440Z,5.38
2022-10-18T14:32:29.989Z,5.07
2022-10-18T14:35:35.758Z,4.43
2022-10-18T14:39:13.871Z,4.57
2022-10-18T14:42:35.906Z,5.10
2022-10-18T14:45:58.858Z,6.85
2022-10-18T14:49:19.962Z,5.20
2022-10-18T14:52:35.099Z,4.73
2022-10-18T14:56:06.794Z,4.57
2022-10-18T14:59:27.087Z,5.63
2022-10-18T15:02:36.467Z,5.18
2022-10-18T15:06:08.608Z,5.32
2022-10-18T15:09:33.690Z,5.90
2022-10-18T15:13:17.568Z,5.30
2022-10-18T15:16:19.317Z,5.63
2022-10-18T15:19:59.372Z,4.60
2022-10-18T15:23:32.131Z,5.70
2022-10-18T15:26:53.241Z,5.90
2022-10-18T15:30:21.331Z,5.67
2022-10-18T15:33:34.821Z,4.75
2022-10-18T15:36:39.219Z,5.05
2022-10-18T15:39:42.099Z,5.07
2022-10-18T15:42:47.124Z,5.20
2022-10-18T15:45:53.779Z,5.00
2022-10-18T15:49:18.824Z,5.93
2022-10-18T15:52:21.657Z,5.53
2022-10-18T15:55:31.591Z,6.20
2022-10-18T15:58:44.319Z,5.50
2022-10-18T16:01:47.670Z,5.77
2022-10-18T16:05:08.758Z,6.03
2022-10-18T16:08:28.973Z,5.72
2022-10-18T16:11:35.156Z,5.38
2022-10-18T16:14:39.183Z,5.60
2022-10-18T16:17:51.448Z,6.10
2022-10-18T16:21:14.506Z,6.25
2022-10-18T16:24:36.502Z,7.80
2022-10-18T16:27:59.566Z,6.95
2022-10-18T16:31:24.239Z,6.23
2022-10-18T16:34:43.453Z,5.77
2022-10-18T16:38:06.615Z,6.28
2022-10-18T16:41:29.458Z,5.90
2022-10-18T16:44:51.469Z,5.93
2022-10-18T16:48:12.466Z,6.57
2022-10-18T16:51:28.557Z,6.20
2022-10-18T16:54:42.980Z,5.70
2022-10-18T16:57:46.665Z,6.25
2022-10-18T17:00:52.096Z,6.68
2022-10-18T17:04:07.492Z,7.10
2022-10-18T17:07:31.459Z,7.10
2022-10-18T17:10:53.114Z,7.55
2022-10-18T17:14:03.122Z,6.50
2022-10-18T17:17:05.837Z,6.82
2022-10-18T17:20:21.327Z,7.20
2022-10-18T17:23:27.923Z,7.60
2022-10-18T17:26:44.470Z,7.65
2022-10-18T17:30:06.588Z,7.63
2022-10-18T17:33:30.379Z,7.20
2022-10-18T17:36:50.518Z,7.30
2022-10-18T17:39:53.560Z,10.60
2022-10-18T17:42:57.806Z,8.10
2022-10-18T17:46:19.703Z,8.10
2022-10-18T17:49:40.097Z,8.25
2022-10-18T17:52:49.074Z,8.33
2022-10-18T17:56:02.409Z,7.60
2022-10-18T17:59:12.729Z,8.98
2022-10-18T18:02:47.359Z,8.48
2022-10-18T18:06:29.301Z,8.75
2022-10-18T18:09:49.343Z,9.80
2022-10-18T18:13:05.340Z,9.37
2022-10-18T18:16:34.416Z,9.73
2022-10-18T18:23:08.327Z,9.50
2022-10-18T18:26:42.278Z,10.27
2022-10-18T18:30:08.137Z,10.30
2022-10-18T18:33:33.113Z,10.20
2022-10-18T18:36:55.060Z,9.45
2022-10-18T18:40:16.083Z,11.32
2022-10-18T18:43:38.011Z,11.87
2022-10-18T18:46:48.054Z,11.53
2022-10-18T18:50:11.194Z,12.60
2022-10-18T18:53:46.213Z,11.57
2022-10-18T18:57:05.356Z,11.55
2022-10-18T19:00:28.194Z,12.73
2022-10-18T19:03:51.175Z,11.60
2022-10-18T19:07:14.219Z,11.85
2022-10-18T19:10:37.093Z,12.23
2022-10-18T19:13:48.863Z,11.95
2022-10-18T19:17:14.208Z,12.53
2022-10-18T19:20:43.054Z,12.37
2022-10-18T19:24:00.171Z,12.23
2022-10-18T19:27:20.189Z,12.30
2022-10-18T19:30:49.948Z,13.05
2022-10-18T19:34:07.270Z,13.80
2022-10-18T19:37:27.217Z,14.90
2022-10-18T19:40:51.594Z,15.45
2022-10-18T19:44:13.048Z,15.70
2022-10-18T19:47:33.128Z,15.50
2022-10-18T19:50:54.130Z,15.83
2022-10-18T19:54:14.065Z,15.17
2022-10-18T19:57:35.634Z,15.55
2022-10-18T20:00:56.336Z,15.95
2022-10-18T20:03:59.645Z,15.80
2022-10-18T20:07:03.240Z,15.23
2022-10-18T20:10:23.660Z,15.50
2022-10-18T20:13:46.021Z,16.13
2022-10-18T20:16:59.800Z,16.15
2022-10-18T20:20:17.018Z,17.08
2022-10-18T20:23:49.801Z,17.07
2022-10-18T20:27:10.826Z,18.17
2022-10-18T20:30:32.769Z,17.50
2022-10-18T20:33:55.915Z,17.77
2022-10-18T20:37:16.204Z,18.55
2022-10-18T20:40:29.773Z,17.93
2022-10-18T20:43:53.878Z,18.97
2022-10-18T20:47:23.956Z,18.05
2022-10-18T20:50:32.047Z,17.40
2022-10-18T20:53:35.959Z,17.77
2022-10-18T20:56:45.478Z,17.43
2022-10-18T21:00:07.847Z,17.90
2022-10-18T21:03:30.870Z,18.08
2022-10-18T21:06:54.446Z,17.80
2022-10-18T21:10:16.838Z,17.05
2022-10-18T21:13:52.831Z,16.60
2022-10-18T21:17:21.792Z,17.33
2022-10-18T21:21:01.897Z,17.48
2022-10-18T21:24:26.942Z,17.17
2022-10-18T21:27:46.870Z,16.77
2022-10-18T21:31:20.042Z,16.47
2022-10-18T21:34:40.912Z,17.13
2022-10-18T21:37:56.836Z,18.33
2022-10-18T21:41:19.936Z,16.67
2022-10-18T21:44:43.793Z,16.90
2022-10-18T21:48:06.735Z,17.10
2022-10-18T21:51:20.834Z,16.97
2022-10-18T21:54:43.815Z,17.02
2022-10-18T21:58:10.906Z,15.85
2022-10-18T22:01:32.489Z,16.88
2022-10-18T22:04:53.832Z,16.83
2022-10-18T22:08:14.726Z,15.93
2022-10-18T22:11:34.824Z,15.60
2022-10-18T22:14:50.879Z,14.80
2022-10-18T22:18:17.953Z,14.95
2022-10-18T22:21:20.988Z,15.23
2022-10-18T22:24:24.767Z,15.07
2022-10-18T22:27:45.304Z,16.33
2022-10-18T22:31:06.397Z,16.70
2022-10-18T22:34:33.321Z,16.50
2022-10-18T22:37:53.497Z,18.33
2022-10-18T22:41:15.480Z,17.87
2022-10-18T22:44:31.745Z,18.10
2022-10-18T22:47:51.605Z,17.85
2022-10-18T22:51:13.707Z,18.00
2022-10-18T22:54:36.561Z,16.90
2022-10-18T22:58:04.581Z,17.00
2022-10-18T23:01:26.442Z,16.92
2022-10-18T23:04:42.734Z,16.77
2022-10-18T23:08:02.585Z,17.27
2022-10-18T23:11:36.630Z,16.67
2022-10-18T23:14:57.354Z,15.63
2022-10-18T23:18:19.398Z,15.63
2022-10-18T23:21:41.449Z,15.70
2022-10-18T23:25:02.639Z,15.85
2022-10-18T23:28:25.623Z,15.33
2022-10-18T23:31:49.990Z,16.10
2022-10-18T23:35:11.378Z,15.38
2022-10-18T23:38:33.399Z,14.75
2022-10-18T23:41:55.431Z,15.02
2022-10-18T23:45:16.468Z,14.57
2022-10-18T23:48:39.469Z,14.10
2022-10-18T23:51:56.716Z,14.32
2022-10-18T23:55:18.461Z,14.05
2022-10-18T23:58:40.558Z,14.70
